sensor_id;sensor_type;location;lat;lon;timestamp;pressure;altitude;pressure_sealevel;temperature;humidity
22283;BME280;11310;51.528;21.204;2023-03-16T00:00:09;100127.06;;;0.26;100.00
22283;BME280;11310;51.528;21.204;2023-03-16T00:02:40;100133.06;;;0.24;100.00
22283;BME280;11310;51.528;21.204;2023-03-16T00:05:11;100124.47;;;0.21;100.00
22283;BME280;11310;51.528;21.204;2023-03-16T00:07:42;100125.34;;;0.22;100.00
22283;BME280;11310;51.528;21.204;2023-03-16T00:10:12;100127.94;;;0.22;100.00
22283;BME280;11310;51.528;21.204;2023-03-16T00:12:40;100132.22;;;0.22;100.00
22283;BME280;11310;51.528;21.204;2023-03-16T00:15:11;100140.84;;;0.22;100.00
22283;BME280;11310;51.528;21.204;2023-03-16T00:17:40;100129.66;;;0.15;100.00
22283;BME280;11310;51.528;21.204;2023-03-16T00:20:10;100142.56;;;0.17;100.00
22283;BME280;11310;51.528;21.204;2023-03-16T00:22:39;100146.84;;;0.17;100.00
22283;BME280;11310;51.528;21.204;2023-03-16T00:25:12;100142.56;;;0.13;100.00
22283;BME280;11310;51.528;21.204;2023-03-16T00:27:41;100144.31;;;0.12;100.00
22283;BME280;11310;51.528;21.204;2023-03-16T00:30:11;100145.16;;;0.08;100.00
22283;BME280;11310;51.528;21.204;2023-03-16T00:32:40;100155.47;;;0.03;100.00
22283;BME280;11310;51.528;21.204;2023-03-16T00:35:09;100151.19;;;-0.03;100.00
22283;BME280;11310;51.528;21.204;2023-03-16T00:37:37;100153.78;;;-0.06;100.00
22283;BME280;11310;51.528;21.204;2023-03-16T00:40:10;100164.97;;;-0.10;100.00
22283;BME280;11310;51.528;21.204;2023-03-16T00:42:40;100158.94;;;-0.16;100.00
22283;BME280;11310;51.528;21.204;2023-03-16T00:45:10;100161.53;;;-0.24;100.00
22283;BME280;11310;51.528;21.204;2023-03-16T00:47:38;100161.53;;;-0.27;100.00
22283;BME280;11310;51.528;21.204;2023-03-16T00:50:08;100161.53;;;-0.27;100.00
22283;BME280;11310;51.528;21.204;2023-03-16T00:52:37;100161.53;;;-0.28;100.00
22283;BME280;11310;51.528;21.204;2023-03-16T00:55:06;100161.53;;;-0.24;100.00
22283;BME280;11310;51.528;21.204;2023-03-16T00:57:36;100159.81;;;-0.22;100.00
22283;BME280;11310;51.528;21.204;2023-03-16T01:00:06;100159.81;;;-0.19;100.00
22283;BME280;11310;51.528;21.204;2023-03-16T01:02:39;100155.50;;;-0.15;100.00
22283;BME280;11310;51.528;21.204;2023-03-16T01:05:08;100156.38;;;-0.13;100.00
22283;BME280;11310;51.528;21.204;2023-03-16T01:07:37;100161.50;;;-0.12;100.00
22283;BME280;11310;51.528;21.204;2023-03-16T01:10:07;100146.06;;;-0.18;100.00
22283;BME280;11310;51.528;21.204;2023-03-16T01:12:37;100155.50;;;-0.14;100.00
22283;BME280;11310;51.528;21.204;2023-03-16T01:15:08;100161.50;;;-0.12;100.00
22283;BME280;11310;51.528;21.204;2023-03-16T01:17:36;100170.09;;;-0.13;100.00
22283;BME280;11310;51.528;21.204;2023-03-16T01:20:05;100177.84;;;-0.13;100.00
22283;BME280;11310;51.528;21.204;2023-03-16T01:22:38;100173.53;;;-0.17;100.00
22283;BME280;11310;51.528;21.204;2023-03-16T01:25:09;100175.28;;;-0.20;100.00
22283;BME280;11310;51.528;21.204;2023-03-16T01:27:42;100174.44;;;-0.22;100.00
22283;BME280;11310;51.528;21.204;2023-03-16T01:30:11;100173.56;;;-0.24;100.00
22283;BME280;11310;51.528;21.204;2023-03-16T01:32:40;100177.84;;;-0.29;100.00
22283;BME280;11310;51.528;21.204;2023-03-16T01:35:12;100185.56;;;-0.31;100.00
22283;BME280;11310;51.528;21.204;2023-03-16T01:37:40;100183.88;;;-0.30;100.00
22283;BME280;11310;51.528;21.204;2023-03-16T01:40:19;100179.59;;;-0.31;100.00
22283;BME280;11310;51.528;21.204;2023-03-16T01:43:00;100189.03;;;-0.30;100.00
22283;BME280;11310;51.528;21.204;2023-03-16T01:46:12;100189.03;;;-0.32;100.00
22283;BME280;11310;51.528;21.204;2023-03-16T01:48:51;100186.44;;;-0.35;100.00
22283;BME280;11310;51.528;21.204;2023-03-16T01:51:28;100183.00;;;-0.37;100.00
22283;BME280;11310;51.528;21.204;2023-03-16T01:54:02;100182.16;;;-0.39;100.00
22283;BME280;11310;51.528;21.204;2023-03-16T01:56:35;100186.44;;;-0.41;100.00
22283;BME280;11310;51.528;21.204;2023-03-16T01:59:09;100184.72;;;-0.42;100.00
22283;BME280;11310;51.528;21.204;2023-03-16T02:01:39;100189.03;;;-0.41;100.00
22283;BME280;11310;51.528;21.204;2023-03-16T02:04:26;100187.31;;;-0.42;100.00
22283;BME280;11310;51.528;21.204;2023-03-16T02:07:00;100194.16;;;-0.41;100.00
22283;BME280;11310;51.528;21.204;2023-03-16T02:09:30;100192.47;;;-0.42;100.00
22283;BME280;11310;51.528;21.204;2023-03-16T02:12:00;100202.75;;;-0.42;100.00
22283;BME280;11310;51.528;21.204;2023-03-16T02:14:33;100206.22;;;-0.43;100.00
22283;BME280;11310;51.528;21.204;2023-03-16T02:17:02;100199.31;;;-0.44;100.00
22283;BME280;11310;51.528;21.204;2023-03-16T02:19:37;100204.47;;;-0.42;100.00
22283;BME280;11310;51.528;21.204;2023-03-16T02:22:09;100204.47;;;-0.44;100.00
22283;BME280;11310;51.528;21.204;2023-03-16T02:24:40;100207.03;;;-0.44;100.00
22283;BME280;11310;51.528;21.204;2023-03-16T02:27:11;100216.50;;;-0.46;100.00
22283;BME280;11310;51.528;21.204;2023-03-16T02:30:04;100219.06;;;-0.49;100.00
22283;BME280;11310;51.528;21.204;2023-03-16T02:32:41;100222.50;;;-0.50;100.00
22283;BME280;11310;51.528;21.204;2023-03-16T02:35:12;100220.78;;;-0.52;100.00
22283;BME280;11310;51.528;21.204;2023-03-16T02:37:41;100229.38;;;-0.55;100.00
22283;BME280;11310;51.528;21.204;2023-03-16T02:40:19;100229.38;;;-0.56;100.00
22283;BME280;11310;51.528;21.204;2023-03-16T02:42:56;100228.50;;;-0.60;100.00
22283;BME280;11310;51.528;21.204;2023-03-16T02:45:35;100233.66;;;-0.60;100.00
22283;BME280;11310;51.528;21.204;2023-03-16T02:48:10;100233.63;;;-0.63;100.00
22283;BME280;11310;51.528;21.204;2023-03-16T02:50:44;100242.22;;;-0.67;100.00
22283;BME280;11310;51.528;21.204;2023-03-16T02:53:14;100241.34;;;-0.70;100.00
22283;BME280;11310;51.528;21.204;2023-03-16T02:55:43;100252.53;;;-0.70;100.00
22283;BME280;11310;51.528;21.204;2023-03-16T02:58:13;100251.66;;;-0.72;100.00
22283;BME280;11310;51.528;21.204;2023-03-16T03:00:43;100251.66;;;-0.76;100.00
22283;BME280;11310;51.528;21.204;2023-03-16T03:03:15;100252.50;;;-0.82;100.00
22283;BME280;11310;51.528;21.204;2023-03-16T03:05:44;100259.31;;;-0.88;100.00
22283;BME280;11310;51.528;21.204;2023-03-16T03:08:12;100263.63;;;-0.90;100.00
22283;BME280;11310;51.528;21.204;2023-03-16T03:10:42;100260.19;;;-0.95;100.00
22283;BME280;11310;51.528;21.204;2023-03-16T03:13:11;100258.47;;;-0.96;100.00
22283;BME280;11310;51.528;21.204;2023-03-16T03:15:39;100272.19;;;-0.96;100.00
22283;BME280;11310;51.528;21.204;2023-03-16T03:18:11;100275.59;;;-1.00;100.00
22283;BME280;11310;51.528;21.204;2023-03-16T03:20:40;100276.44;;;-1.01;100.00
22283;BME280;11310;51.528;21.204;2023-03-16T03:23:09;100271.28;;;-1.04;100.00
22283;BME280;11310;51.528;21.204;2023-03-16T03:25:40;100275.59;;;-1.04;100.00
22283;BME280;11310;51.528;21.204;2023-03-16T03:28:09;100271.28;;;-1.04;100.00
22283;BME280;11310;51.528;21.204;2023-03-16T03:30:38;100278.16;;;-1.04;100.00
22283;BME280;11310;51.528;21.204;2023-03-16T03:33:07;100274.69;;;-1.06;100.00
22283;BME280;11310;51.528;21.204;2023-03-16T03:35:37;100277.28;;;-1.06;100.00
22283;BME280;11310;51.528;21.204;2023-03-16T03:38:08;100282.41;;;-1.08;100.00
22283;BME280;11310;51.528;21.204;2023-03-16T03:40:39;100283.25;;;-1.10;100.00
22283;BME280;11310;51.528;21.204;2023-03-16T03:43:07;100287.53;;;-1.14;100.00
22283;BME280;11310;51.528;21.204;2023-03-16T03:45:40;100290.97;;;-1.16;100.00
22283;BME280;11310;51.528;21.204;2023-03-16T03:48:09;100296.09;;;-1.18;100.00
22283;BME280;11310;51.528;21.204;2023-03-16T03:50:38;100294.41;;;-1.16;100.00
22283;BME280;11310;51.528;21.204;2023-03-16T03:53:33;100295.25;;;-1.15;100.00
22283;BME280;11310;51.528;21.204;2023-03-16T03:56:25;100296.09;;;-1.16;100.00
22283;BME280;11310;51.528;21.204;2023-03-16T03:58:53;100296.09;;;-1.21;100.00
22283;BME280;11310;51.528;21.204;2023-03-16T04:01:45;100297.78;;;-1.23;100.00
22283;BME280;11310;51.528;21.204;2023-03-16T04:04:15;100300.38;;;-1.26;100.00
22283;BME280;11310;51.528;21.204;2023-03-16T04:06:46;100296.91;;;-1.28;100.00
22283;BME280;11310;51.528;21.204;2023-03-16T04:09:14;100301.22;;;-1.28;100.00
22283;BME280;11310;51.528;21.204;2023-03-16T04:11:44;100299.47;;;-1.29;100.00
22283;BME280;11310;51.528;21.204;2023-03-16T04:14:13;100296.00;;;-1.34;100.00
22283;BME280;11310;51.528;21.204;2023-03-16T04:16:42;100306.31;;;-1.31;100.00
22283;BME280;11310;51.528;21.204;2023-03-16T04:19:12;100316.63;;;-1.30;100.00
22283;BME280;11310;51.528;21.204;2023-03-16T04:21:42;100319.22;;;-1.28;100.00
22283;BME280;11310;51.528;21.204;2023-03-16T04:24:11;100329.50;;;-1.27;100.00
22283;BME280;11310;51.528;21.204;2023-03-16T04:26:41;100314.06;;;-1.30;100.00
22283;BME280;11310;51.528;21.204;2023-03-16T04:29:12;100319.19;;;-1.33;100.00
22283;BME280;11310;51.528;21.204;2023-03-16T04:31:45;100331.16;;;-1.36;100.00
22283;BME280;11310;51.528;21.204;2023-03-16T04:34:14;100332.84;;;-1.40;100.00
22283;BME280;11310;51.528;21.204;2023-03-16T04:36:43;100331.97;;;-1.42;100.00
22283;BME280;11310;51.528;21.204;2023-03-16T04:39:13;100337.97;;;-1.43;100.00
22283;BME280;11310;51.528;21.204;2023-03-16T04:41:42;100336.25;;;-1.45;100.00
22283;BME280;11310;51.528;21.204;2023-03-16T04:44:16;100341.38;;;-1.47;100.00
22283;BME280;11310;51.528;21.204;2023-03-16T04:46:45;100342.25;;;-1.48;100.00
22283;BME280;11310;51.528;21.204;2023-03-16T04:49:13;100339.66;;;-1.45;100.00
22283;BME280;11310;51.528;21.204;2023-03-16T04:51:44;100346.56;;;-1.44;100.00
22283;BME280;11310;51.528;21.204;2023-03-16T04:54:19;100343.97;;;-1.42;100.00
22283;BME280;11310;51.528;21.204;2023-03-16T04:56:48;100353.41;;;-1.43;100.00
22283;BME280;11310;51.528;21.204;2023-03-16T04:59:34;100347.38;;;-1.45;100.00
22283;BME280;11310;51.528;21.204;2023-03-16T05:02:22;100353.38;;;-1.46;100.00
22283;BME280;11310;51.528;21.204;2023-03-16T05:04:51;100352.53;;;-1.46;100.00
22283;BME280;11310;51.528;21.204;2023-03-16T05:07:21;100360.25;;;-1.48;100.00
22283;BME280;11310;51.528;21.204;2023-03-16T05:09:55;100361.13;;;-1.43;100.00
22283;BME280;11310;51.528;21.204;2023-03-16T05:12:23;100363.72;;;-1.40;100.00
22283;BME280;11310;51.528;21.204;2023-03-16T05:14:58;100366.28;;;-1.38;100.00
22283;BME280;11310;51.528;21.204;2023-03-16T05:17:49;100359.44;;;-1.39;100.00
22283;BME280;11310;51.528;21.204;2023-03-16T05:20:18;100367.19;;;-1.35;100.00
22283;BME280;11310;51.528;21.204;2023-03-16T05:22:52;100366.34;;;-1.32;100.00
22283;BME280;11310;51.528;21.204;2023-03-16T05:25:29;100373.25;;;-1.28;100.00
22283;BME280;11310;51.528;21.204;2023-03-16T05:28:02;100377.56;;;-1.23;100.00
22283;BME280;11310;51.528;21.204;2023-03-16T05:30:43;100369.88;;;-1.20;100.00
22283;BME280;11310;51.528;21.204;2023-03-16T05:33:17;100371.63;;;-1.16;100.00
22283;BME280;11310;51.528;21.204;2023-03-16T05:35:50;100379.34;;;-1.10;100.00
22283;BME280;11310;51.528;21.204;2023-03-16T05:38:20;100377.63;;;-1.08;100.00
22283;BME280;11310;51.528;21.204;2023-03-16T05:40:51;100382.84;;;-1.02;100.00
22283;BME280;11310;51.528;21.204;2023-03-16T05:43:50;100386.31;;;-0.97;100.00
22283;BME280;11310;51.528;21.204;2023-03-16T05:46:21;100380.31;;;-0.94;100.00
22283;BME280;11310;51.528;21.204;2023-03-16T05:48:51;100386.34;;;-0.91;100.00
22283;BME280;11310;51.528;21.204;2023-03-16T05:51:20;100386.38;;;-0.85;100.00
22283;BME280;11310;51.528;21.204;2023-03-16T05:53:54;100389.81;;;-0.78;100.00
22283;BME280;11310;51.528;21.204;2023-03-16T05:56:46;100390.72;;;-0.72;100.00
22283;BME280;11310;51.528;21.204;2023-03-16T05:59:17;100393.34;;;-0.66;100.00
22283;BME280;11310;51.528;21.204;2023-03-16T06:01:52;100396.78;;;-0.58;100.00
22283;BME280;11310;51.528;21.204;2023-03-16T06:04:21;100386.53;;;-0.49;100.00
22283;BME280;11310;51.528;21.204;2023-03-16T06:06:50;100394.28;;;-0.43;100.00
22283;BME280;11310;51.528;21.204;2023-03-16T06:09:23;100392.59;;;-0.36;100.00
22283;BME280;11310;51.528;21.204;2023-03-16T06:11:55;100389.16;;;-0.31;100.00
22283;BME280;11310;51.528;21.204;2023-03-16T06:14:24;100390.94;;;-0.21;100.00
22283;BME280;11310;51.528;21.204;2023-03-16T06:16:54;100396.09;;;-0.15;100.00
22283;BME280;11310;51.528;21.204;2023-03-16T06:19:23;100402.13;;;-0.02;100.00
22283;BME280;11310;51.528;21.204;2023-03-16T06:21:58;100401.31;;;0.05;100.00
22283;BME280;11310;51.528;21.204;2023-03-16T06:24:27;100403.91;;;0.13;100.00
22283;BME280;11310;51.528;21.204;2023-03-16T06:26:57;100398.72;;;0.18;100.00
22283;BME280;11310;51.528;21.204;2023-03-16T06:29:32;100400.47;;;0.28;100.00
22283;BME280;11310;51.528;21.204;2023-03-16T06:32:02;100408.19;;;0.36;100.00
22283;BME280;11310;51.528;21.204;2023-03-16T06:34:31;100414.22;;;0.43;100.00
22283;BME280;11310;51.528;21.204;2023-03-16T06:37:03;100423.72;;;0.51;100.00
22283;BME280;11310;51.528;21.204;2023-03-16T06:39:32;100421.97;;;0.62;100.00
22283;BME280;11310;51.528;21.204;2023-03-16T06:42:02;100420.28;;;0.70;100.00
22283;BME280;11310;51.528;21.204;2023-03-16T06:44:32;100422.00;;;0.76;100.00
22283;BME280;11310;51.528;21.204;2023-03-16T06:47:06;100430.56;;;0.84;100.00
22283;BME280;11310;51.528;21.204;2023-03-16T06:49:36;100434.88;;;0.94;100.00
22283;BME280;11310;51.528;21.204;2023-03-16T06:52:14;100442.59;;;1.04;100.00
22283;BME280;11310;51.528;21.204;2023-03-16T06:54:42;100446.03;;;1.12;100.00
22283;BME280;11310;51.528;21.204;2023-03-16T06:57:13;100445.16;;;1.21;100.00
22283;BME280;11310;51.528;21.204;2023-03-16T06:59:43;100440.00;;;1.28;100.00
22283;BME280;11310;51.528;21.204;2023-03-16T07:02:11;100446.88;;;1.37;100.00
22283;BME280;11310;51.528;21.204;2023-03-16T07:04:42;100450.25;;;1.46;100.00
22283;BME280;11310;51.528;21.204;2023-03-16T07:07:11;100446.78;;;1.58;100.00
22283;BME280;11310;51.528;21.204;2023-03-16T07:09:39;100452.75;;;1.75;100.00
22283;BME280;11310;51.528;21.204;2023-03-16T07:12:09;100450.09;;;1.90;100.00
22283;BME280;11310;51.528;21.204;2023-03-16T07:14:39;100451.78;;;2.01;100.00
22283;BME280;11310;51.528;21.204;2023-03-16T07:17:10;100447.41;;;2.11;100.00
22283;BME280;11310;51.528;21.204;2023-03-16T07:19:39;100443.06;;;2.14;100.00
22283;BME280;11310;51.528;21.204;2023-03-16T07:22:08;100449.06;;;2.24;100.00
22283;BME280;11310;51.528;21.204;2023-03-16T07:24:39;100447.31;;;2.30;100.00
22283;BME280;11310;51.528;21.204;2023-03-16T07:27:08;100454.19;;;2.36;100.00
22283;BME280;11310;51.528;21.204;2023-03-16T07:29:40;100461.00;;;2.47;100.00
22283;BME280;11310;51.528;21.204;2023-03-16T07:32:09;100460.09;;;2.56;100.00
22283;BME280;11310;51.528;21.204;2023-03-16T07:34:39;100460.91;;;2.61;100.00
22283;BME280;11310;51.528;21.204;2023-03-16T07:37:08;100462.53;;;2.74;100.00
22283;BME280;11310;51.528;21.204;2023-03-16T07:39:38;100471.94;;;2.87;100.00
22283;BME280;11310;51.528;21.204;2023-03-16T07:42:15;100465.75;;;3.01;100.00
22283;BME280;11310;51.528;21.204;2023-03-16T07:45:05;100481.13;;;3.21;100.00
22283;BME280;11310;51.528;21.204;2023-03-16T07:47:34;100471.47;;;3.38;100.00
22283;BME280;11310;51.528;21.204;2023-03-16T07:50:11;100473.84;;;3.57;100.00
22283;BME280;11310;51.528;21.204;2023-03-16T07:52:45;100471.06;;;3.74;100.00
22283;BME280;11310;51.528;21.204;2023-03-16T07:55:13;100468.25;;;3.92;100.00
22283;BME280;11310;51.528;21.204;2023-03-16T07:57:43;100471.41;;;4.15;99.84
22283;BME280;11310;51.528;21.204;2023-03-16T08:00:20;100465.13;;;4.32;98.79
22283;BME280;11310;51.528;21.204;2023-03-16T08:02:50;100473.44;;;4.55;97.18
22283;BME280;11310;51.528;21.204;2023-03-16T08:05:20;100469.53;;;4.82;96.23
22283;BME280;11310;51.528;21.204;2023-03-16T08:07:54;100466.03;;;4.86;94.28
22283;BME280;11310;51.528;21.204;2023-03-16T08:10:26;100468.72;;;4.81;94.64
22283;BME280;11310;51.528;21.204;2023-03-16T08:13:03;100473.03;;;4.81;94.61
22283;BME280;11310;51.528;21.204;2023-03-16T08:15:34;100470.25;;;4.93;95.25
22283;BME280;11310;51.528;21.204;2023-03-16T08:18:09;100475.03;;;5.18;94.00
22283;BME280;11310;51.528;21.204;2023-03-16T08:20:39;100480.56;;;5.46;93.56
22283;BME280;11310;51.528;21.204;2023-03-16T08:23:08;100480.31;;;5.61;91.71
22283;BME280;11310;51.528;21.204;2023-03-16T08:25:40;100474.75;;;5.79;91.75
22283;BME280;11310;51.528;21.204;2023-03-16T08:28:13;100478.06;;;5.88;91.13
22283;BME280;11310;51.528;21.204;2023-03-16T08:30:48;100490.56;;;6.12;89.18
22283;BME280;11310;51.528;21.204;2023-03-16T08:33:36;100482.97;;;6.43;90.66
22283;BME280;11310;51.528;21.204;2023-03-16T08:36:09;100486.09;;;6.95;86.56
22283;BME280;11310;51.528;21.204;2023-03-16T08:38:42;100498.00;;;7.05;85.32
22283;BME280;11310;51.528;21.204;2023-03-16T08:41:26;100497.34;;;7.32;85.00
22283;BME280;11310;51.528;21.204;2023-03-16T08:44:00;100492.41;;;7.53;84.85
22283;BME280;11310;51.528;21.204;2023-03-16T08:46:30;100497.22;;;7.36;83.77
22283;BME280;11310;51.528;21.204;2023-03-16T08:49:01;100489.94;;;7.49;85.05
22283;BME280;11310;51.528;21.204;2023-03-16T08:51:31;100497.78;;;7.81;83.45
22283;BME280;11310;51.528;21.204;2023-03-16T08:53:59;100494.63;;;8.00;82.93
22283;BME280;11310;51.528;21.204;2023-03-16T08:56:28;100496.84;;;8.43;81.85
22283;BME280;11310;51.528;21.204;2023-03-16T08:58:56;100498.47;;;8.76;80.97
22283;BME280;11310;51.528;21.204;2023-03-16T09:01:26;100503.03;;;8.95;79.94
22283;BME280;11310;51.528;21.204;2023-03-16T09:03:57;100508.03;;;9.29;77.95
22283;BME280;11310;51.528;21.204;2023-03-16T09:06:26;100503.69;;;9.78;75.94
22283;BME280;11310;51.528;21.204;2023-03-16T09:08:55;100510.06;;;9.96;74.06
22283;BME280;11310;51.528;21.204;2023-03-16T09:11:23;100516.03;;;9.99;73.93
22283;BME280;11310;51.528;21.204;2023-03-16T09:13:55;100514.69;;;10.37;72.80
22283;BME280;11310;51.528;21.204;2023-03-16T09:16:24;100515.94;;;10.02;74.12
22283;BME280;11310;51.528;21.204;2023-03-16T09:18:53;100518.06;;;9.67;75.31
22283;BME280;11310;51.528;21.204;2023-03-16T09:21:23;100513.81;;;9.89;75.78
22283;BME280;11310;51.528;21.204;2023-03-16T09:23:53;100504.19;;;9.89;75.58
22283;BME280;11310;51.528;21.204;2023-03-16T09:26:22;100508.78;;;9.83;76.36
22283;BME280;11310;51.528;21.204;2023-03-16T09:28:51;100514.56;;;10.17;75.04
22283;BME280;11310;51.528;21.204;2023-03-16T09:31:20;100508.09;;;10.27;73.86
22283;BME280;11310;51.528;21.204;2023-03-16T09:33:49;100514.50;;;10.86;70.29
22283;BME280;11310;51.528;21.204;2023-03-16T09:36:18;100512.50;;;10.92;70.47
22283;BME280;11310;51.528;21.204;2023-03-16T09:38:48;100518.34;;;11.42;67.85
22283;BME280;11310;51.528;21.204;2023-03-16T09:41:29;100522.72;;;11.63;63.27
22283;BME280;11310;51.528;21.204;2023-03-16T09:44:08;100515.97;;;11.56;63.49
22283;BME280;11310;51.528;21.204;2023-03-16T09:46:40;100516.53;;;10.79;68.74
22283;BME280;11310;51.528;21.204;2023-03-16T09:49:12;100512.09;;;9.88;73.64
22283;BME280;11310;51.528;21.204;2023-03-16T09:51:46;100518.13;;;9.41;75.19
22283;BME280;11310;51.528;21.204;2023-03-16T09:54:23;100513.28;;;9.79;74.65
22283;BME280;11310;51.528;21.204;2023-03-16T09:56:56;100509.47;;;10.58;71.98
22283;BME280;11310;51.528;21.204;2023-03-16T09:59:26;100527.25;;;11.38;68.55
22283;BME280;11310;51.528;21.204;2023-03-16T10:02:04;100522.00;;;12.00;61.53
22283;BME280;11310;51.528;21.204;2023-03-16T10:04:42;100526.31;;;11.60;63.06
22283;BME280;11310;51.528;21.204;2023-03-16T10:07:27;100527.75;;;10.83;61.18
22283;BME280;11310;51.528;21.204;2023-03-16T10:10:05;100525.38;;;11.20;62.71
22283;BME280;11310;51.528;21.204;2023-03-16T10:12:46;100526.06;;;11.45;62.90
22283;BME280;11310;51.528;21.204;2023-03-16T10:15:18;100522.56;;;11.86;64.24
22283;BME280;11310;51.528;21.204;2023-03-16T10:17:52;100525.22;;;12.06;58.38
22283;BME280;11310;51.528;21.204;2023-03-16T10:20:24;100523.06;;;12.53;61.00
22283;BME280;11310;51.528;21.204;2023-03-16T10:22:55;100526.91;;;13.37;47.76
22283;BME280;11310;51.528;21.204;2023-03-16T10:25:33;100521.72;;;14.03;50.16
22283;BME280;11310;51.528;21.204;2023-03-16T10:28:03;100523.63;;;14.17;54.99
22283;BME280;11310;51.528;21.204;2023-03-16T10:30:33;100515.28;;;13.75;56.88
22283;BME280;11310;51.528;21.204;2023-03-16T10:33:12;100520.81;;;14.37;48.42
22283;BME280;11310;51.528;21.204;2023-03-16T10:35:46;100519.28;;;14.33;55.25
22283;BME280;11310;51.528;21.204;2023-03-16T10:38:30;100519.63;;;14.42;48.26
22283;BME280;11310;51.528;21.204;2023-03-16T10:41:19;100518.81;;;14.57;46.07
22283;BME280;11310;51.528;21.204;2023-03-16T10:43:50;100517.19;;;13.73;56.81
22283;BME280;11310;51.528;21.204;2023-03-16T10:46:19;100518.66;;;12.53;58.59
22283;BME280;11310;51.528;21.204;2023-03-16T10:48:53;100519.03;;;11.25;60.72
22283;BME280;11310;51.528;21.204;2023-03-16T10:51:28;100520.56;;;10.43;67.35
22283;BME280;11310;51.528;21.204;2023-03-16T10:54:06;100520.41;;;9.99;62.76
22283;BME280;11310;51.528;21.204;2023-03-16T10:56:38;100515.63;;;9.87;68.51
22283;BME280;11310;51.528;21.204;2023-03-16T10:59:20;100516.44;;;10.81;60.83
22283;BME280;11310;51.528;21.204;2023-03-16T11:01:54;100505.09;;;11.85;60.55
22283;BME280;11310;51.528;21.204;2023-03-16T11:04:23;100520.56;;;11.73;59.91
22283;BME280;11310;51.528;21.204;2023-03-16T11:06:54;100515.03;;;11.15;61.60
22283;BME280;11310;51.528;21.204;2023-03-16T11:09:25;100521.22;;;10.71;63.36
22283;BME280;11310;51.528;21.204;2023-03-16T11:12:11;100521.41;;;10.21;56.00
22283;BME280;11310;51.528;21.204;2023-03-16T11:14:42;100517.88;;;9.73;64.49
22283;BME280;11310;51.528;21.204;2023-03-16T11:17:15;100512.03;;;9.40;66.20
22283;BME280;11310;51.528;21.204;2023-03-16T11:19:50;100524.13;;;9.17;64.97
22283;BME280;11310;51.528;21.204;2023-03-16T11:22:22;100515.94;;;9.01;68.09
22283;BME280;11310;51.528;21.204;2023-03-16T11:24:54;100514.47;;;8.93;66.49
22283;BME280;11310;51.528;21.204;2023-03-16T11:27:31;100511.53;;;8.47;66.72
22283;BME280;11310;51.528;21.204;2023-03-16T11:30:05;100514.19;;;8.15;69.78
22283;BME280;11310;51.528;21.204;2023-03-16T11:32:38;100507.78;;;7.96;71.14
22283;BME280;11310;51.528;21.204;2023-03-16T11:35:12;100513.91;;;7.95;70.25
22283;BME280;11310;51.528;21.204;2023-03-16T11:37:50;100516.59;;;7.92;68.53
22283;BME280;11310;51.528;21.204;2023-03-16T11:40:34;100510.88;;;8.10;64.20
22283;BME280;11310;51.528;21.204;2023-03-16T11:43:16;100512.03;;;8.30;62.32
22283;BME280;11310;51.528;21.204;2023-03-16T11:45:50;100514.16;;;8.47;64.55
22283;BME280;11310;51.528;21.204;2023-03-16T11:48:28;100508.34;;;8.66;60.43
22283;BME280;11310;51.528;21.204;2023-03-16T11:51:10;100516.59;;;8.53;59.87
22283;BME280;11310;51.528;21.204;2023-03-16T11:53:53;100516.50;;;8.27;61.30
22283;BME280;11310;51.528;21.204;2023-03-16T11:56:32;100522.22;;;8.09;60.54
22283;BME280;11310;51.528;21.204;2023-03-16T11:59:30;100523.38;;;7.99;59.37
22283;BME280;11310;51.528;21.204;2023-03-16T12:02:35;100518.22;;;7.96;58.59
22283;BME280;11310;51.528;21.204;2023-03-16T12:05:21;100513.69;;;8.02;58.71
22283;BME280;11310;51.528;21.204;2023-03-16T12:08:00;100519.44;;;9.28;55.45
22283;BME280;11310;51.528;21.204;2023-03-16T12:10:39;100516.03;;;10.70;50.55
22283;BME280;11310;51.528;21.204;2023-03-16T12:13:18;100514.56;;;11.89;47.03
22283;BME280;11310;51.528;21.204;2023-03-16T12:15:59;100520.66;;;12.48;47.59
22283;BME280;11310;51.528;21.204;2023-03-16T12:18:37;100513.63;;;11.90;48.24
22283;BME280;11310;51.528;21.204;2023-03-16T12:21:12;100517.66;;;11.15;49.79
22283;BME280;11310;51.528;21.204;2023-03-16T12:23:49;100513.06;;;10.56;51.54
22283;BME280;11310;51.528;21.204;2023-03-16T12:26:20;100513.53;;;10.44;54.81
22283;BME280;11310;51.528;21.204;2023-03-16T12:28:52;100515.19;;;9.99;56.84
22283;BME280;11310;51.528;21.204;2023-03-16T12:31:28;100512.66;;;9.73;57.35
22283;BME280;11310;51.528;21.204;2023-03-16T12:34:06;100516.81;;;9.54;52.23
22283;BME280;11310;51.528;21.204;2023-03-16T12:36:54;100516.41;;;9.14;57.64
22283;BME280;11310;51.528;21.204;2023-03-16T12:39:40;100515.28;;;8.67;60.42
22283;BME280;11310;51.528;21.204;2023-03-16T12:42:29;100518.84;;;8.36;59.43
22283;BME280;11310;51.528;21.204;2023-03-16T12:45:02;100521.25;;;8.13;64.27
22283;BME280;11310;51.528;21.204;2023-03-16T12:47:40;100521.66;;;7.98;63.49
22283;BME280;11310;51.528;21.204;2023-03-16T12:50:12;100519.25;;;7.90;64.55
22283;BME280;11310;51.528;21.204;2023-03-16T12:52:44;100526.28;;;7.88;65.86
22283;BME280;11310;51.528;21.204;2023-03-16T12:55:15;100517.53;;;7.89;65.12
22283;BME280;11310;51.528;21.204;2023-03-16T12:57:47;100531.78;;;7.78;63.24
22283;BME280;11310;51.528;21.204;2023-03-16T13:00:19;100529.41;;;7.69;64.45
22283;BME280;11310;51.528;21.204;2023-03-16T13:02:53;100533.84;;;7.67;60.05
22283;BME280;11310;51.528;21.204;2023-03-16T13:05:28;100540.03;;;7.63;62.73
22283;BME280;11310;51.528;21.204;2023-03-16T13:08:07;100528.94;;;8.48;58.65